createdAt,value
2019-05-15T00:00:58.700Z,1.40
2019-05-15T00:01:58.432Z,1.50
2019-05-15T00:04:00.972Z,1.80
2019-05-15T00:05:01.209Z,1.60
2019-05-15T00:07:05.382Z,1.20
2019-05-15T00:08:05.620Z,1.30
2019-05-15T00:10:09.771Z,1.10
2019-05-15T00:11:10.008Z,1.10
2019-05-15T00:13:14.181Z,0.90
2019-05-15T00:14:14.418Z,1.00
2019-05-15T00:16:18.590Z,1.30
2019-05-15T00:17:19.293Z,1.10
2019-05-15T00:19:22.978Z,1.00
2019-05-15T00:20:23.216Z,1.50
2019-05-15T00:22:17.958Z,1.40
2019-05-15T00:23:18.263Z,1.70
2019-05-15T00:25:22.750Z,1.60
2019-05-15T00:26:20.948Z,1.70
2019-05-15T00:28:25.118Z,1.60
2019-05-15T00:29:25.355Z,1.80
2019-05-15T00:31:29.526Z,2.30
2019-05-15T00:32:29.764Z,2.20
2019-05-15T00:34:33.917Z,2.30
2019-05-15T00:35:34.156Z,2.10
2019-05-15T00:37:38.898Z,1.90
2019-05-15T00:38:39.184Z,1.90
2019-05-15T00:40:42.714Z,1.90
2019-05-15T00:41:53.299Z,1.90
2019-05-15T00:43:49.429Z,2.00
2019-05-15T00:44:49.315Z,1.80
2019-05-15T00:46:52.553Z,1.80
2019-05-15T00:47:52.791Z,1.50
2019-05-15T00:49:58.075Z,1.70
2019-05-15T00:50:59.024Z,1.80
2019-05-15T00:52:50.279Z,2.40
2019-05-15T00:53:50.518Z,2.40
2019-05-15T00:55:54.670Z,2.30
2019-05-15T00:56:54.909Z,2.20
2019-05-15T00:58:59.083Z,2.00
2019-05-15T00:59:59.324Z,2.20
2019-05-15T01:02:03.498Z,2.40
2019-05-15T01:03:03.738Z,1.90
2019-05-15T01:05:08.279Z,2.60
2019-05-15T01:06:08.487Z,1.50
2019-05-15T01:08:12.289Z,2.10
2019-05-15T01:09:12.528Z,2.20
2019-05-15T01:11:19.019Z,1.80
2019-05-15T01:12:18.469Z,2.10
2019-05-15T01:14:21.093Z,2.30
2019-05-15T01:15:21.323Z,2.00
2019-05-15T01:17:25.493Z,2.30
2019-05-15T01:18:25.732Z,2.50
2019-05-15T01:20:29.885Z,2.40
2019-05-15T01:21:30.123Z,2.00
2019-05-15T01:23:34.304Z,1.70
2019-05-15T01:24:34.539Z,1.50
2019-05-15T01:26:38.695Z,1.80
2019-05-15T01:27:38.998Z,1.90
2019-05-15T01:29:45.204Z,1.40
2019-05-15T01:30:43.338Z,1.30
2019-05-15T01:32:39.118Z,1.40
2019-05-15T01:33:38.819Z,1.50
2019-05-15T01:35:40.827Z,1.10
2019-05-15T01:36:41.066Z,1.50
2019-05-15T01:38:45.231Z,1.30
2019-05-15T01:39:45.466Z,1.40
2019-05-15T01:41:49.836Z,1.10
2019-05-15T01:42:50.065Z,1.20
2019-05-15T01:44:54.027Z,1.50
2019-05-15T01:45:54.266Z,1.40
2019-05-15T01:47:58.650Z,1.40
2019-05-15T01:48:58.697Z,1.60
2019-05-15T01:51:02.824Z,1.10
2019-05-15T01:52:03.064Z,1.10
2019-05-15T01:54:09.081Z,1.10
2019-05-15T01:55:09.082Z,1.20
2019-05-15T01:57:11.616Z,1.10
2019-05-15T01:58:11.860Z,1.20
2019-05-15T02:00:16.032Z,1.20
2019-05-15T02:01:18.906Z,1.10
2019-05-15T02:03:25.401Z,1.10
2019-05-15T02:04:20.826Z,1.40
2019-05-15T02:06:24.974Z,1.30
2019-05-15T02:07:25.207Z,1.30
2019-05-15T02:09:29.386Z,0.90
2019-05-15T02:10:29.622Z,1.40
2019-05-15T02:12:22.701Z,1.10
2019-05-15T02:13:22.939Z,1.20
2019-05-15T02:15:28.504Z,1.30
2019-05-15T02:16:28.723Z,1.10
2019-05-15T02:18:31.528Z,1.20
2019-05-15T02:19:31.761Z,1.00
2019-05-15T02:21:37.880Z,1.40
2019-05-15T02:22:36.157Z,1.00
2019-05-15T02:24:40.323Z,1.20
2019-05-15T02:25:40.562Z,1.10
2019-05-15T02:27:44.709Z,1.10
2019-05-15T02:28:44.948Z,1.20
2019-05-15T02:30:50.454Z,1.10
2019-05-15T02:31:50.269Z,1.10
2019-05-15T02:33:53.532Z,1.10
2019-05-15T02:34:53.765Z,0.90
2019-05-15T02:37:00.083Z,0.90
2019-05-15T02:37:59.828Z,1.00
2019-05-15T02:40:02.334Z,1.00
2019-05-15T02:41:02.566Z,1.00
2019-05-15T02:42:58.949Z,1.00
2019-05-15T02:43:59.019Z,0.90
2019-05-15T02:46:00.667Z,1.10
2019-05-15T02:47:00.288Z,1.00
2019-05-15T02:49:04.456Z,1.00
2019-05-15T02:50:04.718Z,1.00
2019-05-15T02:52:09.759Z,0.80
2019-05-15T02:53:10.243Z,1.30
2019-05-15T02:55:13.265Z,0.90
2019-05-15T02:56:13.493Z,1.00
2019-05-15T02:58:21.235Z,0.90
2019-05-15T02:59:19.404Z,0.90
2019-05-15T03:01:22.049Z,1.10
2019-05-15T03:02:22.284Z,1.30
2019-05-15T03:04:28.965Z,1.00
2019-05-15T03:05:29.262Z,0.90
2019-05-15T03:07:30.833Z,1.00
2019-05-15T03:08:31.069Z,1.10
2019-05-15T03:10:35.239Z,0.90
2019-05-15T03:11:35.477Z,0.80
2019-05-15T03:13:39.647Z,1.20
2019-05-15T03:14:40.174Z,0.90
2019-05-15T03:16:44.031Z,0.90
2019-05-15T03:17:44.268Z,1.00
2019-05-15T03:19:49.657Z,0.90
2019-05-15T03:20:50.078Z,0.90
2019-05-15T03:22:41.756Z,1.00
2019-05-15T03:23:41.994Z,0.90
2019-05-15T03:25:48.891Z,1.10
2019-05-15T03:26:49.406Z,0.90
2019-05-15T03:28:50.543Z,0.90
2019-05-15T03:29:50.785Z,0.80
2019-05-15T03:32:09.456Z,1.00
2019-05-15T03:33:01.813Z,0.90
2019-05-15T03:35:04.637Z,0.90
2019-05-15T03:36:02.592Z,1.00
2019-05-15T03:38:03.754Z,0.90
2019-05-15T03:39:03.983Z,1.20
2019-05-15T03:41:10.292Z,1.10
2019-05-15T03:42:09.616Z,0.90
2019-05-15T03:44:12.550Z,1.10
2019-05-15T03:45:12.781Z,0.80
2019-05-15T03:47:19.461Z,1.10
2019-05-15T03:48:19.660Z,1.10
2019-05-15T03:50:21.375Z,1.10
2019-05-15T03:51:21.607Z,1.10
2019-05-15T03:53:25.756Z,1.00
2019-05-15T03:54:29.153Z,0.90
2019-05-15T03:56:30.170Z,1.00
2019-05-15T03:57:30.729Z,1.00
2019-05-15T03:59:34.552Z,1.00
2019-05-15T04:00:34.791Z,1.00
2019-05-15T04:02:28.814Z,1.00
2019-05-15T04:03:30.080Z,1.00
2019-05-15T04:05:32.305Z,1.10
2019-05-15T04:06:32.541Z,1.00
2019-05-15T04:08:39.088Z,0.80
2019-05-15T04:09:38.697Z,0.90
2019-05-15T04:11:41.093Z,0.90
2019-05-15T04:12:41.330Z,1.00
2019-05-15T04:14:45.480Z,1.00
2019-05-15T04:15:45.715Z,1.00
2019-05-15T04:17:49.888Z,1.80
2019-05-15T04:18:50.245Z,1.60
2019-05-15T04:20:54.390Z,1.10
2019-05-15T04:21:54.630Z,1.10
2019-05-15T04:23:58.896Z,1.00
2019-05-15T04:24:59.333Z,1.00
2019-05-15T04:27:06.260Z,1.00
2019-05-15T04:28:03.426Z,1.00
2019-05-15T04:30:10.589Z,1.00
2019-05-15T04:31:09.453Z,0.90
2019-05-15T04:33:11.974Z,0.90
2019-05-15T04:34:12.217Z,1.00
2019-05-15T04:36:19.168Z,0.90
2019-05-15T04:37:18.886Z,1.00
2019-05-15T04:39:20.778Z,1.00
2019-05-15T04:40:21.016Z,1.00
2019-05-15T04:42:14.113Z,0.90
2019-05-15T04:43:14.363Z,0.90
2019-05-15T04:45:19.487Z,1.00
2019-05-15T04:46:19.921Z,1.10
2019-05-15T04:48:22.978Z,0.90
2019-05-15T04:49:23.214Z,0.90
2019-05-15T04:51:30.399Z,0.80
2019-05-15T04:52:30.550Z,1.10
2019-05-15T04:54:31.773Z,1.40
2019-05-15T04:55:32.011Z,1.70
2019-05-15T04:57:39.476Z,1.30
2019-05-15T04:58:39.171Z,0.90
2019-05-15T05:00:40.560Z,1.10
2019-05-15T05:01:40.795Z,0.80
2019-05-15T05:03:44.969Z,1.10
2019-05-15T05:04:45.202Z,1.40
2019-05-15T05:06:49.607Z,1.20
2019-05-15T05:07:49.599Z,1.30
2019-05-15T05:09:53.738Z,1.00
2019-05-15T05:10:53.973Z,1.00
2019-05-15T05:12:50.875Z,0.90
2019-05-15T05:13:48.504Z,0.80
2019-05-15T05:15:51.446Z,0.80
2019-05-15T05:16:51.684Z,0.80
2019-05-15T05:18:55.853Z,0.90
2019-05-15T05:19:58.227Z,0.80
2019-05-15T05:22:00.246Z,0.70
2019-05-15T05:23:00.485Z,0.80
2019-05-15T05:25:04.629Z,0.90
2019-05-15T05:26:08.051Z,0.70
2019-05-15T05:28:09.035Z,0.80
2019-05-15T05:29:09.273Z,0.80
2019-05-15T05:31:14.196Z,0.70
2019-05-15T05:32:28.145Z,3.10
2019-05-15T05:34:19.398Z,1.20
2019-05-15T05:35:18.569Z,0.70
2019-05-15T05:37:22.227Z,0.80
2019-05-15T05:38:22.464Z,0.90
2019-05-15T05:40:29.140Z,0.70
2019-05-15T05:41:28.065Z,0.90
2019-05-15T05:43:31.017Z,0.70
2019-05-15T05:44:31.261Z,0.80
2019-05-15T05:46:35.409Z,0.80
2019-05-15T05:47:38.009Z,0.80
2019-05-15T05:49:39.823Z,0.80
2019-05-15T05:50:43.668Z,0.70
2019-05-15T05:52:33.160Z,0.90
2019-05-15T05:53:33.397Z,0.80
2019-05-15T05:55:38.448Z,0.80
2019-05-15T05:56:37.931Z,0.70
2019-05-15T05:58:41.949Z,0.80
2019-05-15T05:59:42.185Z,0.80
2019-05-15T06:01:48.468Z,0.70
2019-05-15T06:02:48.800Z,0.80
2019-05-15T06:04:50.738Z,0.70
2019-05-15T06:05:50.983Z,0.80
2019-05-15T06:07:55.158Z,0.80
2019-05-15T06:08:55.395Z,0.80
2019-05-15T06:10:59.545Z,0.80
2019-05-15T06:11:59.787Z,0.70
2019-05-15T06:14:03.942Z,0.90
2019-05-15T06:15:04.180Z,0.70
2019-05-15T06:17:08.483Z,0.80
2019-05-15T06:18:08.554Z,0.90
2019-05-15T06:20:12.727Z,0.70
2019-05-15T06:21:12.968Z,0.80
2019-05-15T06:23:23.511Z,0.70
2019-05-15T06:24:18.088Z,0.80
2019-05-15T06:26:21.525Z,0.90
2019-05-15T06:27:21.745Z,0.70
2019-05-15T06:29:28.217Z,0.90
2019-05-15T06:30:30.289Z,0.80
2019-05-15T06:32:19.564Z,0.80
2019-05-15T06:33:19.472Z,0.80
2019-05-15T06:35:23.652Z,0.80
2019-05-15T06:36:23.886Z,0.70
2019-05-15T06:38:30.950Z,0.80
2019-05-15T06:39:28.436Z,0.70
2019-05-15T06:41:34.013Z,0.80
2019-05-15T06:42:32.673Z,0.90
2019-05-15T06:44:38.842Z,0.80
2019-05-15T06:45:38.044Z,0.80
2019-05-15T06:47:41.240Z,0.70
2019-05-15T06:48:41.463Z,0.80
2019-05-15T06:50:45.636Z,0.80
2019-05-15T06:51:45.870Z,0.90
2019-05-15T06:53:50.050Z,0.70
2019-05-15T06:54:50.274Z,0.70
2019-05-15T06:56:54.425Z,0.90
2019-05-15T06:57:54.656Z,0.80
2019-05-15T06:59:58.826Z,0.80
2019-05-15T07:00:59.448Z,0.70
2019-05-15T07:02:52.143Z,0.90
2019-05-15T07:03:52.383Z,0.80
2019-05-15T07:05:59.822Z,0.80
2019-05-15T07:06:58.370Z,0.80
2019-05-15T07:09:00.977Z,0.70
2019-05-15T07:10:01.191Z,0.80
2019-05-15T07:12:05.340Z,0.80
2019-05-15T07:13:05.579Z,0.70
2019-05-15T07:15:09.747Z,0.80
2019-05-15T07:16:09.993Z,0.70
2019-05-15T07:18:14.140Z,0.90
2019-05-15T07:19:14.380Z,0.80
2019-05-15T07:21:20.644Z,0.70
2019-05-15T07:22:18.791Z,0.80
2019-05-15T07:24:22.965Z,0.60
2019-05-15T07:25:23.205Z,0.70
2019-05-15T07:27:28.373Z,0.70
2019-05-15T07:28:28.836Z,0.80
2019-05-15T07:30:31.778Z,1.00
2019-05-15T07:31:32.020Z,1.00
2019-05-15T07:33:42.986Z,0.60
2019-05-15T07:34:37.875Z,0.80
2019-05-15T07:36:40.598Z,0.70
2019-05-15T07:37:40.837Z,0.80
2019-05-15T07:39:45.041Z,0.80
2019-05-15T07:40:45.261Z,0.80
2019-05-15T07:42:38.871Z,0.90
2019-05-15T07:43:38.590Z,0.80
2019-05-15T07:45:44.426Z,0.70
2019-05-15T07:46:43.006Z,0.80
2019-05-15T07:48:49.062Z,0.70
2019-05-15T07:49:49.257Z,0.70
2019-05-15T07:51:51.587Z,0.70
2019-05-15T07:52:51.837Z,0.80
2019-05-15T07:54:57.993Z,0.80
2019-05-15T07:56:00.578Z,0.80
2019-05-15T07:58:00.415Z,0.80
2019-05-15T07:59:00.658Z,0.90
2019-05-15T08:01:05.514Z,0.80
2019-05-15T08:02:05.089Z,1.10
2019-05-15T08:04:23.075Z,0.90
2019-05-15T08:05:09.492Z,0.70
2019-05-15T08:07:13.675Z,0.90
2019-05-15T08:08:13.920Z,1.00
2019-05-15T08:10:18.368Z,1.00
2019-05-15T08:11:23.972Z,0.90
2019-05-15T08:13:22.506Z,0.80
2019-05-15T08:14:22.754Z,1.00
2019-05-15T08:16:28.702Z,0.80
2019-05-15T08:17:28.877Z,1.00
2019-05-15T08:19:31.334Z,1.10
2019-05-15T08:20:31.577Z,1.10
2019-05-15T08:22:24.686Z,0.90
2019-05-15T08:23:24.932Z,1.00
2019-05-15T08:25:35.163Z,1.10
2019-05-15T08:26:29.369Z,1.00
2019-05-15T08:28:33.532Z,1.00
2019-05-15T08:29:33.783Z,0.90
2019-05-15T08:31:38.898Z,0.90
2019-05-15T08:32:38.918Z,1.00
2019-05-15T08:34:42.373Z,1.20
2019-05-15T08:35:47.338Z,0.90
2019-05-15T08:37:49.124Z,0.90
2019-05-15T08:38:48.604Z,1.00
2019-05-15T08:40:51.237Z,0.90
2019-05-15T08:41:51.485Z,1.50
2019-05-15T08:43:57.859Z,0.90
2019-05-15T08:44:58.278Z,1.10
2019-05-15T08:47:00.154Z,0.90
2019-05-15T08:48:00.401Z,0.90
2019-05-15T08:50:04.567Z,0.90
2019-05-15T08:51:04.809Z,0.90
2019-05-15T08:52:58.030Z,1.00
2019-05-15T08:53:58.181Z,0.90
2019-05-15T08:56:02.362Z,0.90
2019-05-15T08:57:02.611Z,0.90
2019-05-15T08:59:08.762Z,0.80
2019-05-15T09:00:09.743Z,0.80
2019-05-15T09:02:11.215Z,0.80
2019-05-15T09:03:11.462Z,1.10
2019-05-15T09:05:15.630Z,0.90
2019-05-15T09:06:18.614Z,0.90
2019-05-15T09:08:20.080Z,0.90
2019-05-15T09:09:20.321Z,0.90
2019-05-15T09:11:24.508Z,1.00
2019-05-15T09:12:24.753Z,1.00
2019-05-15T09:14:28.928Z,0.90
2019-05-15T09:15:29.420Z,0.90
2019-05-15T09:17:33.357Z,0.80
2019-05-15T09:18:33.610Z,1.10
2019-05-15T09:20:38.410Z,0.80
2019-05-15T09:21:38.792Z,0.90
2019-05-15T09:23:42.204Z,0.90
2019-05-15T09:24:42.450Z,0.70
2019-05-15T09:26:48.775Z,0.90
2019-05-15T09:27:48.807Z,0.90
2019-05-15T09:29:51.048Z,0.90
2019-05-15T09:30:51.293Z,0.90
2019-05-15T09:32:44.414Z,0.80
2019-05-15T09:33:44.658Z,0.80
2019-05-15T09:35:49.294Z,0.70
2019-05-15T09:36:49.085Z,0.70
2019-05-15T09:38:53.271Z,0.70
2019-05-15T09:39:53.519Z,0.80
2019-05-15T09:41:57.965Z,0.70
2019-05-15T09:42:57.973Z,1.00
2019-05-15T09:45:02.161Z,0.80
2019-05-15T09:46:02.393Z,0.80
2019-05-15T09:48:09.523Z,0.80
2019-05-15T09:49:08.824Z,0.90
2019-05-15T09:51:11.035Z,1.00
2019-05-15T09:52:11.281Z,0.80
2019-05-15T09:54:15.473Z,0.90
2019-05-15T09:55:17.879Z,0.80
2019-05-15T09:57:19.920Z,0.70
2019-05-15T09:58:21.050Z,0.70
2019-05-15T10:00:24.351Z,0.70
2019-05-15T10:01:24.594Z,0.70
2019-05-15T10:03:28.791Z,0.80
2019-05-15T10:04:29.233Z,0.80
2019-05-15T10:06:33.203Z,0.80
2019-05-15T10:07:33.448Z,0.70
2019-05-15T10:09:38.875Z,0.80
2019-05-15T10:10:38.166Z,0.80
2019-05-15T10:12:34.908Z,0.80
2019-05-15T10:13:31.260Z,0.80
2019-05-15T10:15:35.437Z,0.80
2019-05-15T10:16:35.684Z,0.90
2019-05-15T10:18:39.876Z,0.80
2019-05-15T10:19:40.150Z,0.80
2019-05-15T10:21:44.302Z,0.70
2019-05-15T10:22:44.568Z,0.70
2019-05-15T10:24:50.785Z,0.70
2019-05-15T10:25:49.019Z,1.00
2019-05-15T10:27:53.214Z,0.70
2019-05-15T10:28:53.465Z,0.80
2019-05-15T10:31:00.093Z,0.60
2019-05-15T10:31:57.889Z,0.60
2019-05-15T10:34:02.090Z,0.60
2019-05-15T10:35:02.344Z,0.60
2019-05-15T10:37:08.409Z,0.70
2019-05-15T10:38:08.796Z,0.70
2019-05-15T10:40:10.974Z,0.60
2019-05-15T10:41:14.970Z,0.60
2019-05-15T10:43:15.433Z,0.60
2019-05-15T10:44:17.978Z,0.70
2019-05-15T10:46:19.852Z,0.60
2019-05-15T10:47:20.102Z,0.60
2019-05-15T10:49:24.301Z,0.60
2019-05-15T10:50:24.555Z,0.70
2019-05-15T10:52:18.115Z,0.60
2019-05-15T10:53:18.703Z,0.50
2019-05-15T10:55:23.128Z,0.60
2019-05-15T10:56:23.375Z,0.60
2019-05-15T10:58:28.633Z,0.60
2019-05-15T10:59:27.832Z,0.50
2019-05-15T11:01:32.012Z,0.50
2019-05-15T11:02:32.261Z,0.50
2019-05-15T11:04:36.459Z,0.60
2019-05-15T11:05:45.092Z,0.50
2019-05-15T11:07:40.940Z,0.60
2019-05-15T11:08:41.186Z,0.60
2019-05-15T11:10:45.396Z,0.70
2019-05-15T11:11:45.684Z,0.60
2019-05-15T11:13:49.981Z,0.50
2019-05-15T11:14:50.204Z,0.60
2019-05-15T11:16:54.379Z,0.60
2019-05-15T11:17:54.628Z,0.60
2019-05-15T11:19:58.822Z,0.60
2019-05-15T11:20:59.445Z,0.60
2019-05-15T11:22:52.301Z,0.60
2019-05-15T11:23:52.555Z,0.60
2019-05-15T11:25:58.136Z,0.60
2019-05-15T11:26:59.293Z,0.60
2019-05-15T11:29:01.208Z,0.70
2019-05-15T11:30:01.465Z,0.50
2019-05-15T11:32:05.630Z,0.60
2019-05-15T11:33:05.884Z,0.70
2019-05-15T11:35:10.082Z,0.60
2019-05-15T11:36:10.328Z,0.60
2019-05-15T11:38:16.495Z,0.60
2019-05-15T11:39:14.758Z,0.60
2019-05-15T11:41:19.385Z,0.60
2019-05-15T11:42:20.267Z,0.50
2019-05-15T11:44:23.437Z,0.60
2019-05-15T11:45:23.682Z,0.60
2019-05-15T11:47:28.041Z,0.70
2019-05-15T11:48:29.851Z,0.60
2019-05-15T11:50:32.338Z,0.60
2019-05-15T11:51:32.620Z,0.50
2019-05-15T11:53:39.492Z,0.60
2019-05-15T11:54:38.576Z,0.60
2019-05-15T11:56:41.287Z,0.70
2019-05-15T11:57:47.041Z,0.80
2019-05-15T11:59:46.458Z,0.60
2019-05-15T12:00:46.077Z,0.60
2019-05-15T12:02:39.225Z,0.70
2019-05-15T12:03:39.456Z,0.80
2019-05-15T12:05:43.713Z,0.80
2019-05-15T12:06:58.210Z,0.80
2019-05-15T12:08:48.135Z,0.90
2019-05-15T12:09:48.385Z,0.70
2019-05-15T12:11:52.635Z,0.80
2019-05-15T12:12:52.887Z,0.90
2019-05-15T12:14:57.111Z,0.80
2019-05-15T12:15:58.886Z,0.80
2019-05-15T12:18:01.559Z,0.80
2019-05-15T12:19:09.095Z,0.90
2019-05-15T12:21:06.135Z,0.80
2019-05-15T12:22:06.528Z,0.90
2019-05-15T12:24:10.724Z,0.80
2019-05-15T12:25:10.975Z,0.80
2019-05-15T12:27:18.282Z,0.70
2019-05-15T12:28:15.522Z,0.80
2019-05-15T12:30:20.236Z,0.90
2019-05-15T12:31:24.538Z,0.90
2019-05-15T12:33:24.305Z,0.70
2019-05-15T12:34:24.551Z,0.60
2019-05-15T12:36:51.353Z,1.10
2019-05-15T12:37:30.012Z,1.40
2019-05-15T12:39:34.683Z,0.70
2019-05-15T13:00:59.198Z,0.70
2019-05-15T13:01:59.442Z,0.80
2019-05-15T13:04:04.130Z,0.80
2019-05-15T13:05:04.423Z,0.70
2019-05-15T13:07:15.801Z,0.80
2019-05-15T13:08:09.337Z,0.80
2019-05-15T13:10:14.098Z,0.60
2019-05-15T13:11:15.281Z,0.70
2019-05-15T13:13:19.037Z,0.70
2019-05-15T13:14:19.274Z,0.80
2019-05-15T13:16:23.932Z,0.80
2019-05-15T13:17:24.169Z,0.70
2019-05-15T13:19:28.652Z,0.80
2019-05-15T13:20:28.948Z,0.70
2019-05-15T13:22:24.660Z,0.80
2019-05-15T13:23:21.983Z,0.80
2019-05-15T13:25:28.065Z,0.70
2019-05-15T13:26:27.044Z,0.70
2019-05-15T13:28:30.605Z,0.70
2019-05-15T13:29:30.854Z,0.90
2019-05-15T13:31:35.018Z,0.80
2019-05-15T13:32:35.262Z,0.70
2019-05-15T13:34:39.462Z,0.80
2019-05-15T13:35:39.700Z,0.70
2019-05-15T13:37:43.896Z,0.90
2019-05-15T13:38:44.140Z,0.90
2019-05-15T13:40:48.338Z,0.80
2019-05-15T13:41:48.560Z,0.80
2019-05-15T13:43:53.243Z,0.70
2019-05-15T13:44:53.496Z,0.60
2019-05-15T13:46:58.308Z,0.60
2019-05-15T13:47:58.381Z,0.70
2019-05-15T13:50:03.078Z,0.70
2019-05-15T13:51:03.356Z,0.70
2019-05-15T13:52:58.908Z,0.80
2019-05-15T13:53:57.186Z,0.80
2019-05-15T13:56:01.858Z,0.80
2019-05-15T13:57:02.101Z,0.70
2019-05-15T13:59:08.075Z,0.60
2019-05-15T14:00:08.727Z,0.60
2019-05-15T14:02:11.698Z,0.70
2019-05-15T14:03:11.941Z,0.70
2019-05-15T14:05:16.634Z,0.70
2019-05-15T14:06:19.147Z,0.90
2019-05-15T14:08:21.060Z,0.70
2019-05-15T14:09:21.289Z,0.70
2019-05-15T14:11:30.343Z,0.70
2019-05-15T14:12:27.737Z,0.70
2019-05-15T14:14:30.887Z,0.70
2019-05-15T14:15:31.133Z,0.80
